sensor_id;sensor_type;location;lat;lon;timestamp;temperature;humidity
18703;DHT22;9481;48.796;9.210;2022-08-02T00:01:50;24.30;56.80
18703;DHT22;9481;48.796;9.210;2022-08-02T00:04:16;24.30;56.80
18703;DHT22;9481;48.796;9.210;2022-08-02T00:06:42;24.30;56.80
18703;DHT22;9481;48.796;9.210;2022-08-02T00:09:08;24.30;56.80
18703;DHT22;9481;48.796;9.210;2022-08-02T00:11:34;24.30;57.00
18703;DHT22;9481;48.796;9.210;2022-08-02T00:13:59;24.20;57.00
18703;DHT22;9481;48.796;9.210;2022-08-02T00:16:25;24.20;57.20
18703;DHT22;9481;48.796;9.210;2022-08-02T00:18:51;24.20;57.20
18703;DHT22;9481;48.796;9.210;2022-08-02T00:21:17;24.20;57.40
18703;DHT22;9481;48.796;9.210;2022-08-02T00:23:43;24.20;57.50
18703;DHT22;9481;48.796;9.210;2022-08-02T00:26:08;24.20;57.40
18703;DHT22;9481;48.796;9.210;2022-08-02T00:28:34;24.20;57.40
18703;DHT22;9481;48.796;9.210;2022-08-02T00:31:00;24.20;57.50
18703;DHT22;9481;48.796;9.210;2022-08-02T00:33:26;24.20;57.60
18703;DHT22;9481;48.796;9.210;2022-08-02T00:35:52;24.20;57.60
18703;DHT22;9481;48.796;9.210;2022-08-02T00:38:18;24.20;57.70
18703;DHT22;9481;48.796;9.210;2022-08-02T00:40:50;24.20;57.70
18703;DHT22;9481;48.796;9.210;2022-08-02T00:43:17;24.20;58.10
18703;DHT22;9481;48.796;9.210;2022-08-02T00:45:43;24.20;58.00
18703;DHT22;9481;48.796;9.210;2022-08-02T00:48:11;24.20;57.90
18703;DHT22;9481;48.796;9.210;2022-08-02T00:50:39;24.20;57.90
18703;DHT22;9481;48.796;9.210;2022-08-02T00:53:07;24.20;58.00
18703;DHT22;9481;48.796;9.210;2022-08-02T00:55:37;24.20;58.00
18703;DHT22;9481;48.796;9.210;2022-08-02T00:58:03;24.20;57.90
18703;DHT22;9481;48.796;9.210;2022-08-02T01:00:29;24.20;57.90
18703;DHT22;9481;48.796;9.210;2022-08-02T01:02:55;24.20;57.90
18703;DHT22;9481;48.796;9.210;2022-08-02T01:05:21;24.10;57.90
18703;DHT22;9481;48.796;9.210;2022-08-02T01:07:46;24.20;57.90
18703;DHT22;9481;48.796;9.210;2022-08-02T01:10:12;24.20;58.00
18703;DHT22;9481;48.796;9.210;2022-08-02T01:12:38;24.10;57.90
18703;DHT22;9481;48.796;9.210;2022-08-02T01:15:06;24.10;57.90
18703;DHT22;9481;48.796;9.210;2022-08-02T01:17:48;24.10;58.00
18703;DHT22;9481;48.796;9.210;2022-08-02T01:26:41;24.00;58.00
18703;DHT22;9481;48.796;9.210;2022-08-02T01:32:02;24.00;58.00
18703;DHT22;9481;48.796;9.210;2022-08-02T01:34:36;24.00;58.10
18703;DHT22;9481;48.796;9.210;2022-08-02T01:39:56;23.90;57.90
18703;DHT22;9481;48.796;9.210;2022-08-02T01:42:30;23.90;58.00
18703;DHT22;9481;48.796;9.210;2022-08-02T01:44:58;23.90;57.90
18703;DHT22;9481;48.796;9.210;2022-08-02T01:47:30;23.80;57.80
18703;DHT22;9481;48.796;9.210;2022-08-02T01:50:00;23.80;57.80
18703;DHT22;9481;48.796;9.210;2022-08-02T01:52:30;23.80;57.80
18703;DHT22;9481;48.796;9.210;2022-08-02T01:55:19;23.80;57.90
18703;DHT22;9481;48.796;9.210;2022-08-02T01:57:53;23.80;58.20
18703;DHT22;9481;48.796;9.210;2022-08-02T02:00:24;23.80;57.90
18703;DHT22;9481;48.796;9.210;2022-08-02T02:02:54;23.80;57.90
18703;DHT22;9481;48.796;9.210;2022-08-02T02:05:23;23.80;57.80
18703;DHT22;9481;48.796;9.210;2022-08-02T02:07:55;23.80;57.80
18703;DHT22;9481;48.796;9.210;2022-08-02T02:10:28;23.70;57.80
18703;DHT22;9481;48.796;9.210;2022-08-02T02:12:59;23.70;57.90
18703;DHT22;9481;48.796;9.210;2022-08-02T02:15:30;23.70;57.80
18703;DHT22;9481;48.796;9.210;2022-08-02T02:17:57;23.70;57.80
18703;DHT22;9481;48.796;9.210;2022-08-02T02:20:25;23.70;57.80
18703;DHT22;9481;48.796;9.210;2022-08-02T02:22:51;23.70;57.90
18703;DHT22;9481;48.796;9.210;2022-08-02T02:25:21;23.70;57.90
18703;DHT22;9481;48.796;9.210;2022-08-02T02:27:53;23.70;58.10
18703;DHT22;9481;48.796;9.210;2022-08-02T02:30:25;23.70;58.10
18703;DHT22;9481;48.796;9.210;2022-08-02T02:32:56;23.60;58.00
18703;DHT22;9481;48.796;9.210;2022-08-02T02:35:28;23.60;58.10
18703;DHT22;9481;48.796;9.210;2022-08-02T02:37:58;23.60;58.20
18703;DHT22;9481;48.796;9.210;2022-08-02T02:40:28;23.60;58.20
18703;DHT22;9481;48.796;9.210;2022-08-02T02:42:55;23.60;58.10
18703;DHT22;9481;48.796;9.210;2022-08-02T02:45:23;23.60;58.20
18703;DHT22;9481;48.796;9.210;2022-08-02T02:47:51;23.60;58.20
18703;DHT22;9481;48.796;9.210;2022-08-02T02:50:20;23.50;58.10
18703;DHT22;9481;48.796;9.210;2022-08-02T02:52:47;23.50;58.20
18703;DHT22;9481;48.796;9.210;2022-08-02T02:55:15;23.50;58.20
18703;DHT22;9481;48.796;9.210;2022-08-02T02:57:43;23.50;58.30
18703;DHT22;9481;48.796;9.210;2022-08-02T03:00:12;23.50;58.30
18703;DHT22;9481;48.796;9.210;2022-08-02T03:02:41;23.50;58.30
18703;DHT22;9481;48.796;9.210;2022-08-02T03:05:09;23.50;58.30
18703;DHT22;9481;48.796;9.210;2022-08-02T03:07:36;23.50;58.30
18703;DHT22;9481;48.796;9.210;2022-08-02T03:10:04;23.50;58.40
18703;DHT22;9481;48.796;9.210;2022-08-02T03:12:33;23.50;58.50
18703;DHT22;9481;48.796;9.210;2022-08-02T03:15:04;23.50;58.50
18703;DHT22;9481;48.796;9.210;2022-08-02T03:17:44;23.40;58.40
18703;DHT22;9481;48.796;9.210;2022-08-02T03:20:16;23.40;58.60
18703;DHT22;9481;48.796;9.210;2022-08-02T03:22:45;23.40;58.40
18703;DHT22;9481;48.796;9.210;2022-08-02T03:25:13;23.40;58.30
18703;DHT22;9481;48.796;9.210;2022-08-02T03:27:40;23.40;58.30
18703;DHT22;9481;48.796;9.210;2022-08-02T03:30:08;23.40;58.30
18703;DHT22;9481;48.796;9.210;2022-08-02T03:32:37;23.40;58.40
18703;DHT22;9481;48.796;9.210;2022-08-02T03:35:05;23.30;58.20
18703;DHT22;9481;48.796;9.210;2022-08-02T03:37:35;23.30;58.20
18703;DHT22;9481;48.796;9.210;2022-08-02T03:40:02;23.30;58.30
18703;DHT22;9481;48.796;9.210;2022-08-02T03:42:31;23.30;58.30
18703;DHT22;9481;48.796;9.210;2022-08-02T03:44:58;23.20;58.30
18703;DHT22;9481;48.796;9.210;2022-08-02T03:47:26;23.20;58.30
18703;DHT22;9481;48.796;9.210;2022-08-02T03:49:52;23.20;58.30
18703;DHT22;9481;48.796;9.210;2022-08-02T03:52:19;23.20;58.40
18703;DHT22;9481;48.796;9.210;2022-08-02T03:54:46;23.20;58.50
18703;DHT22;9481;48.796;9.210;2022-08-02T03:57:12;23.20;58.50
18703;DHT22;9481;48.796;9.210;2022-08-02T03:59:41;23.20;58.40
18703;DHT22;9481;48.796;9.210;2022-08-02T04:02:09;23.20;58.60
18703;DHT22;9481;48.796;9.210;2022-08-02T04:04:35;23.10;58.40
18703;DHT22;9481;48.796;9.210;2022-08-02T04:07:02;23.10;58.30
18703;DHT22;9481;48.796;9.210;2022-08-02T04:09:28;23.10;58.40
18703;DHT22;9481;48.796;9.210;2022-08-02T04:11:53;23.10;58.40
18703;DHT22;9481;48.796;9.210;2022-08-02T04:14:19;23.10;58.40
18703;DHT22;9481;48.796;9.210;2022-08-02T04:16:52;23.10;58.40
18703;DHT22;9481;48.796;9.210;2022-08-02T04:19:57;23.20;58.60
18703;DHT22;9481;48.796;9.210;2022-08-02T04:22:30;23.20;58.70
18703;DHT22;9481;48.796;9.210;2022-08-02T04:25:06;23.20;58.50
18703;DHT22;9481;48.796;9.210;2022-08-02T04:27:34;23.20;58.60
18703;DHT22;9481;48.796;9.210;2022-08-02T04:30:03;23.20;58.50
18703;DHT22;9481;48.796;9.210;2022-08-02T04:32:30;23.20;58.50
18703;DHT22;9481;48.796;9.210;2022-08-02T04:34:57;23.20;58.50
18703;DHT22;9481;48.796;9.210;2022-08-02T04:37:24;23.20;58.50
18703;DHT22;9481;48.796;9.210;2022-08-02T04:39:51;23.20;58.60
18703;DHT22;9481;48.796;9.210;2022-08-02T04:42:21;23.20;58.60
18703;DHT22;9481;48.796;9.210;2022-08-02T04:44:48;23.20;58.70
18703;DHT22;9481;48.796;9.210;2022-08-02T04:47:14;23.20;58.60
18703;DHT22;9481;48.796;9.210;2022-08-02T04:49:40;23.20;58.70
18703;DHT22;9481;48.796;9.210;2022-08-02T04:52:06;23.30;58.80
18703;DHT22;9481;48.796;9.210;2022-08-02T04:54:31;23.30;58.80
18703;DHT22;9481;48.796;9.210;2022-08-02T04:56:57;23.30;58.80
18703;DHT22;9481;48.796;9.210;2022-08-02T04:59:23;23.30;58.70
18703;DHT22;9481;48.796;9.210;2022-08-02T05:01:48;23.40;58.70
18703;DHT22;9481;48.796;9.210;2022-08-02T05:04:14;23.40;58.70
18703;DHT22;9481;48.796;9.210;2022-08-02T05:06:40;23.40;58.70
18703;DHT22;9481;48.796;9.210;2022-08-02T05:09:06;23.50;58.80
18703;DHT22;9481;48.796;9.210;2022-08-02T05:11:31;23.50;58.70
18703;DHT22;9481;48.796;9.210;2022-08-02T05:13:57;23.50;58.80
18703;DHT22;9481;48.796;9.210;2022-08-02T05:16:23;23.40;58.60
18703;DHT22;9481;48.796;9.210;2022-08-02T05:18:50;23.50;58.70
18703;DHT22;9481;48.796;9.210;2022-08-02T05:21:16;23.50;58.80
18703;DHT22;9481;48.796;9.210;2022-08-02T05:23:42;23.50;58.90
18703;DHT22;9481;48.796;9.210;2022-08-02T05:26:08;23.50;59.00
18703;DHT22;9481;48.796;9.210;2022-08-02T05:28:34;23.50;58.90
18703;DHT22;9481;48.796;9.210;2022-08-02T05:31:00;23.50;58.80
18703;DHT22;9481;48.796;9.210;2022-08-02T05:33:25;23.50;58.60
18703;DHT22;9481;48.796;9.210;2022-08-02T05:35:51;23.60;58.40
18703;DHT22;9481;48.796;9.210;2022-08-02T05:38:17;23.60;58.40
18703;DHT22;9481;48.796;9.210;2022-08-02T05:40:42;23.60;58.50
18703;DHT22;9481;48.796;9.210;2022-08-02T05:43:13;23.60;58.40
18703;DHT22;9481;48.796;9.210;2022-08-02T05:45:39;23.70;58.70
18703;DHT22;9481;48.796;9.210;2022-08-02T05:48:06;23.70;58.70
18703;DHT22;9481;48.796;9.210;2022-08-02T05:50:34;23.70;58.70
18703;DHT22;9481;48.796;9.210;2022-08-02T05:53:23;23.70;58.80
18703;DHT22;9481;48.796;9.210;2022-08-02T05:56:23;23.80;59.00
18703;DHT22;9481;48.796;9.210;2022-08-02T05:59:25;23.90;58.90
18703;DHT22;9481;48.796;9.210;2022-08-02T06:01:57;23.90;59.00
18703;DHT22;9481;48.796;9.210;2022-08-02T06:04:35;24.00;58.90
18703;DHT22;9481;48.796;9.210;2022-08-02T06:07:11;24.10;58.90
18703;DHT22;9481;48.796;9.210;2022-08-02T06:09:38;24.10;58.60
18703;DHT22;9481;48.796;9.210;2022-08-02T06:12:07;24.10;58.30
18703;DHT22;9481;48.796;9.210;2022-08-02T06:14:36;24.20;58.30
18703;DHT22;9481;48.796;9.210;2022-08-02T06:17:05;24.20;58.30
18703;DHT22;9481;48.796;9.210;2022-08-02T06:19:32;24.20;58.60
18703;DHT22;9481;48.796;9.210;2022-08-02T06:21:58;24.20;58.70
18703;DHT22;9481;48.796;9.210;2022-08-02T06:24:43;24.20;58.70
18703;DHT22;9481;48.796;9.210;2022-08-02T06:27:13;24.20;58.60
18703;DHT22;9481;48.796;9.210;2022-08-02T06:29:43;24.20;58.70
18703;DHT22;9481;48.796;9.210;2022-08-02T06:32:09;24.20;58.70
18703;DHT22;9481;48.796;9.210;2022-08-02T06:34:36;24.30;58.70
18703;DHT22;9481;48.796;9.210;2022-08-02T06:37:15;24.30;58.80
18703;DHT22;9481;48.796;9.210;2022-08-02T06:40:03;24.30;59.20
18703;DHT22;9481;48.796;9.210;2022-08-02T06:43:09;24.40;59.20
18703;DHT22;9481;48.796;9.210;2022-08-02T06:45:39;24.50;59.20
18703;DHT22;9481;48.796;9.210;2022-08-02T06:48:06;24.50;59.10
18703;DHT22;9481;48.796;9.210;2022-08-02T06:50:33;24.60;59.00
18703;DHT22;9481;48.796;9.210;2022-08-02T06:53:00;24.70;58.90
18703;DHT22;9481;48.796;9.210;2022-08-02T06:55:25;24.80;58.70
18703;DHT22;9481;48.796;9.210;2022-08-02T06:57:53;24.80;58.60
18703;DHT22;9481;48.796;9.210;2022-08-02T07:00:19;24.90;58.40
18703;DHT22;9481;48.796;9.210;2022-08-02T07:02:45;25.00;58.60
18703;DHT22;9481;48.796;9.210;2022-08-02T07:05:10;25.10;58.30
18703;DHT22;9481;48.796;9.210;2022-08-02T07:07:36;25.20;58.10
18703;DHT22;9481;48.796;9.210;2022-08-02T07:10:02;25.20;57.90
18703;DHT22;9481;48.796;9.210;2022-08-02T07:12:29;25.30;57.70
18703;DHT22;9481;48.796;9.210;2022-08-02T07:14:57;25.40;57.50
18703;DHT22;9481;48.796;9.210;2022-08-02T07:17:24;25.50;57.40
18703;DHT22;9481;48.796;9.210;2022-08-02T07:19:50;25.50;57.30
18703;DHT22;9481;48.796;9.210;2022-08-02T07:22:15;25.60;57.30
18703;DHT22;9481;48.796;9.210;2022-08-02T07:24:42;25.70;57.20
18703;DHT22;9481;48.796;9.210;2022-08-02T07:27:08;25.80;57.20
18703;DHT22;9481;48.796;9.210;2022-08-02T07:29:34;25.90;56.90
18703;DHT22;9481;48.796;9.210;2022-08-02T07:32:00;25.90;56.70
18703;DHT22;9481;48.796;9.210;2022-08-02T07:34:25;26.00;56.50
18703;DHT22;9481;48.796;9.210;2022-08-02T07:36:51;26.10;56.50
18703;DHT22;9481;48.796;9.210;2022-08-02T07:39:17;26.20;56.40
18703;DHT22;9481;48.796;9.210;2022-08-02T07:41:42;26.30;56.40
18703;DHT22;9481;48.796;9.210;2022-08-02T07:44:09;26.50;56.20
18703;DHT22;9481;48.796;9.210;2022-08-02T07:46:34;26.60;56.20
18703;DHT22;9481;48.796;9.210;2022-08-02T07:49:00;26.60;56.00
18703;DHT22;9481;48.796;9.210;2022-08-02T07:51:26;26.70;55.90
18703;DHT22;9481;48.796;9.210;2022-08-02T07:53:51;26.80;56.00
18703;DHT22;9481;48.796;9.210;2022-08-02T07:56:17;26.90;55.70
18703;DHT22;9481;48.796;9.210;2022-08-02T07:58:43;27.00;55.50
18703;DHT22;9481;48.796;9.210;2022-08-02T08:01:09;27.10;55.30
18703;DHT22;9481;48.796;9.210;2022-08-02T08:03:35;27.20;55.40
18703;DHT22;9481;48.796;9.210;2022-08-02T08:06:00;27.20;55.30
18703;DHT22;9481;48.796;9.210;2022-08-02T08:08:26;27.30;54.50
18703;DHT22;9481;48.796;9.210;2022-08-02T08:10:52;27.40;54.30
18703;DHT22;9481;48.796;9.210;2022-08-02T08:13:18;27.50;54.30
18703;DHT22;9481;48.796;9.210;2022-08-02T08:15:44;27.60;54.50
18703;DHT22;9481;48.796;9.210;2022-08-02T08:18:10;27.60;54.10
18703;DHT22;9481;48.796;9.210;2022-08-02T08:20:36;27.70;54.10
18703;DHT22;9481;48.796;9.210;2022-08-02T08:23:02;27.80;54.00
18703;DHT22;9481;48.796;9.210;2022-08-02T08:25:27;27.90;53.90
18703;DHT22;9481;48.796;9.210;2022-08-02T08:27:53;28.00;53.60
18703;DHT22;9481;48.796;9.210;2022-08-02T08:30:20;28.10;53.30
18703;DHT22;9481;48.796;9.210;2022-08-02T08:32:46;28.20;53.10
18703;DHT22;9481;48.796;9.210;2022-08-02T08:35:13;28.20;53.10
18703;DHT22;9481;48.796;9.210;2022-08-02T08:37:39;28.20;52.90
18703;DHT22;9481;48.796;9.210;2022-08-02T08:40:06;28.20;52.80
18703;DHT22;9481;48.796;9.210;2022-08-02T08:42:36;28.20;52.50
18703;DHT22;9481;48.796;9.210;2022-08-02T08:45:03;28.20;52.00
18703;DHT22;9481;48.796;9.210;2022-08-02T08:47:37;28.20;51.70
18703;DHT22;9481;48.796;9.210;2022-08-02T08:50:20;28.30;51.70
18703;DHT22;9481;48.796;9.210;2022-08-02T08:52:53;28.30;52.10
18703;DHT22;9481;48.796;9.210;2022-08-02T08:55:26;28.40;52.20
18703;DHT22;9481;48.796;9.210;2022-08-02T08:57:54;28.40;52.30
18703;DHT22;9481;48.796;9.210;2022-08-02T09:00:23;28.40;52.20
18703;DHT22;9481;48.796;9.210;2022-08-02T09:02:48;28.50;52.40
18703;DHT22;9481;48.796;9.210;2022-08-02T09:05:15;28.50;52.30
18703;DHT22;9481;48.796;9.210;2022-08-02T09:07:42;28.60;52.20
18703;DHT22;9481;48.796;9.210;2022-08-02T09:13:08;28.80;51.90
18703;DHT22;9481;48.796;9.210;2022-08-02T09:15:39;28.90;51.10
18703;DHT22;9481;48.796;9.210;2022-08-02T09:18:07;29.00;51.70
18703;DHT22;9481;48.796;9.210;2022-08-02T09:20:35;29.10;51.80
18703;DHT22;9481;48.796;9.210;2022-08-02T09:23:16;29.20;51.60
18703;DHT22;9481;48.796;9.210;2022-08-02T09:26:36;29.30;50.60
18703;DHT22;9481;48.796;9.210;2022-08-02T09:28:48;29.40;51.10
18703;DHT22;9481;48.796;9.210;2022-08-02T09:31:20;29.60;51.30
18703;DHT22;9481;48.796;9.210;2022-08-02T09:33:55;29.70;50.90
18703;DHT22;9481;48.796;9.210;2022-08-02T09:36:23;29.80;50.40
18703;DHT22;9481;48.796;9.210;2022-08-02T09:38:56;29.90;50.40
18703;DHT22;9481;48.796;9.210;2022-08-02T09:41:26;30.00;49.50
18703;DHT22;9481;48.796;9.210;2022-08-02T09:43:55;30.20;49.70
18703;DHT22;9481;48.796;9.210;2022-08-02T09:46:27;30.30;49.50
18703;DHT22;9481;48.796;9.210;2022-08-02T09:49:16;30.40;48.60
18703;DHT22;9481;48.796;9.210;2022-08-02T09:54:33;30.50;48.00
18703;DHT22;9481;48.796;9.210;2022-08-02T09:57:00;30.50;47.10
18703;DHT22;9481;48.796;9.210;2022-08-02T09:59:27;30.50;47.30
18703;DHT22;9481;48.796;9.210;2022-08-02T10:01:55;30.50;47.30
18703;DHT22;9481;48.796;9.210;2022-08-02T10:04:24;30.50;47.10
18703;DHT22;9481;48.796;9.210;2022-08-02T10:06:52;30.50;47.10
18703;DHT22;9481;48.796;9.210;2022-08-02T10:09:19;30.60;47.20
18703;DHT22;9481;48.796;9.210;2022-08-02T10:11:47;30.60;47.10
18703;DHT22;9481;48.796;9.210;2022-08-02T10:14:13;30.60;47.00
18703;DHT22;9481;48.796;9.210;2022-08-02T10:16:41;30.60;47.00
18703;DHT22;9481;48.796;9.210;2022-08-02T10:19:08;30.60;46.50
18703;DHT22;9481;48.796;9.210;2022-08-02T10:21:51;30.50;46.20
18703;DHT22;9481;48.796;9.210;2022-08-02T10:24:25;30.50;46.20
18703;DHT22;9481;48.796;9.210;2022-08-02T10:26:52;30.40;46.20
18703;DHT22;9481;48.796;9.210;2022-08-02T10:29:23;30.30;46.10
18703;DHT22;9481;48.796;9.210;2022-08-02T10:32:06;30.20;46.30
18703;DHT22;9481;48.796;9.210;2022-08-02T10:34:47;30.10;46.00
18703;DHT22;9481;48.796;9.210;2022-08-02T10:37:17;30.00;45.70
18703;DHT22;9481;48.796;9.210;2022-08-02T10:39:45;30.00;45.90
18703;DHT22;9481;48.796;9.210;2022-08-02T10:42:12;30.00;46.10
18703;DHT22;9481;48.796;9.210;2022-08-02T10:45:11;30.00;46.70
18703;DHT22;9481;48.796;9.210;2022-08-02T10:47:41;30.20;46.30
18703;DHT22;9481;48.796;9.210;2022-08-02T10:55:44;30.40;44.90
18703;DHT22;9481;48.796;9.210;2022-08-02T10:58:18;30.40;44.60
18703;DHT22;9481;48.796;9.210;2022-08-02T11:00:46;30.40;43.70
18703;DHT22;9481;48.796;9.210;2022-08-02T11:03:34;30.20;44.10
18703;DHT22;9481;48.796;9.210;2022-08-02T11:08:38;30.10;44.30
18703;DHT22;9481;48.796;9.210;2022-08-02T11:11:16;30.00;44.80
18703;DHT22;9481;48.796;9.210;2022-08-02T11:14:05;30.00;44.00
18703;DHT22;9481;48.796;9.210;2022-08-02T11:19:30;30.00;46.00
18703;DHT22;9481;48.796;9.210;2022-08-02T11:24:30;30.40;45.80
18703;DHT22;9481;48.796;9.210;2022-08-02T11:27:03;30.60;45.80
18703;DHT22;9481;48.796;9.210;2022-08-02T11:29:34;30.90;45.20
18703;DHT22;9481;48.796;9.210;2022-08-02T11:32:02;31.10;45.30
18703;DHT22;9481;48.796;9.210;2022-08-02T11:34:30;31.30;44.70
18703;DHT22;9481;48.796;9.210;2022-08-02T11:36:57;31.40;43.90
18703;DHT22;9481;48.796;9.210;2022-08-02T11:39:23;31.50;42.90
18703;DHT22;9481;48.796;9.210;2022-08-02T11:41:54;31.50;42.60
18703;DHT22;9481;48.796;9.210;2022-08-02T11:44:23;31.40;42.20
18703;DHT22;9481;48.796;9.210;2022-08-02T11:46:59;31.30;42.50
18703;DHT22;9481;48.796;9.210;2022-08-02T11:49:26;31.30;42.60
18703;DHT22;9481;48.796;9.210;2022-08-02T11:52:07;31.30;43.20
18703;DHT22;9481;48.796;9.210;2022-08-02T11:54:37;31.40;42.90
18703;DHT22;9481;48.796;9.210;2022-08-02T11:57:20;31.50;43.00
18703;DHT22;9481;48.796;9.210;2022-08-02T11:59:55;31.70;41.90
18703;DHT22;9481;48.796;9.210;2022-08-02T12:02:27;31.90;41.40
18703;DHT22;9481;48.796;9.210;2022-08-02T12:05:00;32.10;41.80
18703;DHT22;9481;48.796;9.210;2022-08-02T12:07:30;32.40;42.20
18703;DHT22;9481;48.796;9.210;2022-08-02T12:10:08;32.60;42.20
18703;DHT22;9481;48.796;9.210;2022-08-02T12:15:38;33.00;39.70
18703;DHT22;9481;48.796;9.210;2022-08-02T12:18:10;33.20;39.80
18703;DHT22;9481;48.796;9.210;2022-08-02T12:20:59;33.30;39.90
18703;DHT22;9481;48.796;9.210;2022-08-02T12:23:26;33.50;40.40
18703;DHT22;9481;48.796;9.210;2022-08-02T12:26:18;33.60;39.70
18703;DHT22;9481;48.796;9.210;2022-08-02T12:28:44;33.70;38.20
18703;DHT22;9481;48.796;9.210;2022-08-02T12:31:11;33.80;38.70
18703;DHT22;9481;48.796;9.210;2022-08-02T12:33:47;33.80;38.30
18703;DHT22;9481;48.796;9.210;2022-08-02T12:36:22;33.90;38.70
18703;DHT22;9481;48.796;9.210;2022-08-02T12:38:58;33.90;38.90
18703;DHT22;9481;48.796;9.210;2022-08-02T12:41:27;34.00;38.30
18703;DHT22;9481;48.796;9.210;2022-08-02T12:43:54;34.00;38.00
18703;DHT22;9481;48.796;9.210;2022-08-02T12:46:22;34.00;37.60
18703;DHT22;9481;48.796;9.210;2022-08-02T12:48:49;34.00;37.40
18703;DHT22;9481;48.796;9.210;2022-08-02T12:53:50;33.80;38.00
18703;DHT22;9481;48.796;9.210;2022-08-02T12:56:36;33.60;38.10
18703;DHT22;9481;48.796;9.210;2022-08-02T12:59:03;33.60;38.50
18703;DHT22;9481;48.796;9.210;2022-08-02T13:01:30;33.60;38.30
18703;DHT22;9481;48.796;9.210;2022-08-02T13:03:57;33.60;38.30
18703;DHT22;9481;48.796;9.210;2022-08-02T13:06:23;33.50;37.40
18703;DHT22;9481;48.796;9.210;2022-08-02T13:08:50;33.30;37.10
18703;DHT22;9481;48.796;9.210;2022-08-02T13:11:18;33.20;37.00
18703;DHT22;9481;48.796;9.210;2022-08-02T13:13:43;33.10;37.00
18703;DHT22;9481;48.796;9.210;2022-08-02T13:16:09;32.90;36.90
18703;DHT22;9481;48.796;9.210;2022-08-02T13:18:36;32.70;37.30
18703;DHT22;9481;48.796;9.210;2022-08-02T13:21:03;32.60;38.00
18703;DHT22;9481;48.796;9.210;2022-08-02T13:23:31;32.60;38.50
18703;DHT22;9481;48.796;9.210;2022-08-02T13:25:57;32.60;38.50
18703;DHT22;9481;48.796;9.210;2022-08-02T13:28:23;32.60;38.70
18703;DHT22;9481;48.796;9.210;2022-08-02T13:30:49;32.80;38.60
18703;DHT22;9481;48.796;9.210;2022-08-02T13:33:15;32.90;38.20
18703;DHT22;9481;48.796;9.210;2022-08-02T13:35:42;33.00;37.70
18703;DHT22;9481;48.796;9.210;2022-08-02T13:38:08;33.10;37.20
18703;DHT22;9481;48.796;9.210;2022-08-02T13:40:34;33.20;37.40
18703;DHT22;9481;48.796;9.210;2022-08-02T13:43:20;33.20;37.50
18703;DHT22;9481;48.796;9.210;2022-08-02T13:45:46;33.30;37.10
18703;DHT22;9481;48.796;9.210;2022-08-02T13:48:12;33.40;37.00
18703;DHT22;9481;48.796;9.210;2022-08-02T13:50:37;33.50;37.00
18703;DHT22;9481;48.796;9.210;2022-08-02T13:53:03;33.50;37.00
18703;DHT22;9481;48.796;9.210;2022-08-02T13:55:29;33.60;36.80
18703;DHT22;9481;48.796;9.210;2022-08-02T13:57:55;33.60;36.60
18703;DHT22;9481;48.796;9.210;2022-08-02T14:00:21;33.60;36.70
18703;DHT22;9481;48.796;9.210;2022-08-02T14:02:47;33.50;36.90
18703;DHT22;9481;48.796;9.210;2022-08-02T14:05:13;33.50;36.30
18703;DHT22;9481;48.796;9.210;2022-08-02T14:07:39;33.40;35.80
18703;DHT22;9481;48.796;9.210;2022-08-02T14:10:05;33.40;36.00
18703;DHT22;9481;48.796;9.210;2022-08-02T14:12:31;33.30;35.30
18703;DHT22;9481;48.796;9.210;2022-08-02T14:14:57;33.30;35.80
18703;DHT22;9481;48.796;9.210;2022-08-02T14:17:22;33.30;36.20
18703;DHT22;9481;48.796;9.210;2022-08-02T14:19:48;33.30;36.50
18703;DHT22;9481;48.796;9.210;2022-08-02T14:22:15;33.40;35.70
18703;DHT22;9481;48.796;9.210;2022-08-02T14:24:41;33.40;35.30
18703;DHT22;9481;48.796;9.210;2022-08-02T14:27:08;33.40;34.80
18703;DHT22;9481;48.796;9.210;2022-08-02T14:29:34;33.40;34.60
18703;DHT22;9481;48.796;9.210;2022-08-02T14:31:59;33.40;34.90
18703;DHT22;9481;48.796;9.210;2022-08-02T14:34:25;33.40;34.80
18703;DHT22;9481;48.796;9.210;2022-08-02T14:36:51;33.40;34.60
18703;DHT22;9481;48.796;9.210;2022-08-02T14:39:17;33.40;34.40
18703;DHT22;9481;48.796;9.210;2022-08-02T14:41:43;33.30;34.60
18703;DHT22;9481;48.796;9.210;2022-08-02T14:44:08;33.40;34.80
18703;DHT22;9481;48.796;9.210;2022-08-02T14:46:36;33.40;34.90
18703;DHT22;9481;48.796;9.210;2022-08-02T14:49:06;33.40;35.10
18703;DHT22;9481;48.796;9.210;2022-08-02T14:51:35;33.40;34.80
18703;DHT22;9481;48.796;9.210;2022-08-02T14:54:04;33.40;34.50
18703;DHT22;9481;48.796;9.210;2022-08-02T14:56:31;33.40;34.40
18703;DHT22;9481;48.796;9.210;2022-08-02T14:58:57;33.30;34.50
18703;DHT22;9481;48.796;9.210;2022-08-02T15:01:23;33.30;34.00
18703;DHT22;9481;48.796;9.210;2022-08-02T15:03:49;33.20;33.90
18703;DHT22;9481;48.796;9.210;2022-08-02T15:06:15;33.10;34.30
18703;DHT22;9481;48.796;9.210;2022-08-02T15:08:41;33.00;34.30
18703;DHT22;9481;48.796;9.210;2022-08-02T15:11:07;32.90;34.00
18703;DHT22;9481;48.796;9.210;2022-08-02T15:13:32;32.80;34.20
18703;DHT22;9481;48.796;9.210;2022-08-02T15:15:58;32.70;34.20
18703;DHT22;9481;48.796;9.210;2022-08-02T15:18:24;32.60;34.10
18703;DHT22;9481;48.796;9.210;2022-08-02T15:20:49;32.50;34.20
18703;DHT22;9481;48.796;9.210;2022-08-02T15:23:15;32.40;34.40
18703;DHT22;9481;48.796;9.210;2022-08-02T15:25:42;32.40;34.40
18703;DHT22;9481;48.796;9.210;2022-08-02T15:28:08;32.30;34.50
18703;DHT22;9481;48.796;9.210;2022-08-02T15:30:35;32.30;34.40
18703;DHT22;9481;48.796;9.210;2022-08-02T15:33:02;32.20;34.30
18703;DHT22;9481;48.796;9.210;2022-08-02T15:35:29;32.20;34.40
18703;DHT22;9481;48.796;9.210;2022-08-02T15:37:54;32.20;34.30
18703;DHT22;9481;48.796;9.210;2022-08-02T15:40:21;32.20;33.90
18703;DHT22;9481;48.796;9.210;2022-08-02T15:42:47;32.20;34.50
18703;DHT22;9481;48.796;9.210;2022-08-02T15:45:13;32.10;33.90
18703;DHT22;9481;48.796;9.210;2022-08-02T15:47:39;32.10;33.70
18703;DHT22;9481;48.796;9.210;2022-08-02T15:50:05;32.00;33.70
18703;DHT22;9481;48.796;9.210;2022-08-02T15:52:31;32.00;33.90
18703;DHT22;9481;48.796;9.210;2022-08-02T15:54:57;31.90;33.50
18703;DHT22;9481;48.796;9.210;2022-08-02T15:57:23;31.90;33.50
18703;DHT22;9481;48.796;9.210;2022-08-02T15:59:49;31.90;33.60
18703;DHT22;9481;48.796;9.210;2022-08-02T16:02:17;31.80;33.20
18703;DHT22;9481;48.796;9.210;2022-08-02T16:04:45;31.80;33.40
18703;DHT22;9481;48.796;9.210;2022-08-02T16:07:11;31.70;33.50
18703;DHT22;9481;48.796;9.210;2022-08-02T16:09:36;31.70;34.00
18703;DHT22;9481;48.796;9.210;2022-08-02T16:12:03;31.70;33.70
18703;DHT22;9481;48.796;9.210;2022-08-02T16:14:29;31.70;34.00
18703;DHT22;9481;48.796;9.210;2022-08-02T16:16:54;31.70;34.60
18703;DHT22;9481;48.796;9.210;2022-08-02T16:19:20;31.60;35.00
18703;DHT22;9481;48.796;9.210;2022-08-02T16:21:48;31.60;35.30
18703;DHT22;9481;48.796;9.210;2022-08-02T16:24:15;31.50;35.30
18703;DHT22;9481;48.796;9.210;2022-08-02T16:26:41;31.50;35.50
18703;DHT22;9481;48.796;9.210;2022-08-02T16:29:07;31.50;35.70
18703;DHT22;9481;48.796;9.210;2022-08-02T16:31:33;31.40;35.80
18703;DHT22;9481;48.796;9.210;2022-08-02T16:33:59;31.40;35.90